Terminal Aerodrome Forecast
Issued by NWS

Home | Current Version | Previous Version | Text Only | Print | Product List | Glossary On
Versions: 1 2 3 4 5 6 7 8 9 10 11 12 13 14
000
FTUS43 KPAH 231120
TAFCGI
TAF
KCGI 231120Z 2312/2412 17010G15KT 4SM -SHRA BR BKN015
     FM231400 19010G16KT 3SM SHRA SCT005 OVC015
      TEMPO 2314/2316 1SM +SHRA OVC005
     FM231800 30010G15KT P6SM VCSH SCT015 OVC030
     FM232100 33010G18KT P6SM VCSH BKN015
     FM240000 34010G15KT P6SM SCT025 BKN050
     FM240600 34007KT P6SM SCT050 BKN250=

USA.gov is the U.S. government's official web portal to all federal, state and local government web resources and services.